PWSweather.com
Personal Weather Stations
Station Observations
AT335
PozzuoliIT 80078

PozzuoliIT 80078

Lat: 40.8299847, Lon: 14.1268428

Elevation: 70

Station Type: Davis Vantage Pro2

http://www.ik8sda.it/wx.htm

Latest ConditionsUpdated 9:40:01 PM GMT+01:01 Wednesday, Jun 20, 2018
Currently Today's Max Today's Min Today's Average
Temperature 68.9°F20.5°C 82.7°F28.2°C 68.7°F20.4°C 76.3°F24.6°C
Dew Point 66.2°F19.0°C 69.7°F20.9°C 61.0°F16.1°C 65.1°F18.4°C
Winds 1.2 mph NE1.9 kmh NE 14.0 mph -22.5 kmh - - 4.3 mph 6.9 kmh
Wind Gusts 6.9 mph11.1 kmh 22.0 mph35.4 kmh - -
Humidity 91% 91% 52% 70%
Pressure 30.06 in1017.9 mb 30.08 in1018.6 mb 29.95 in1014.2 mb -
Precipitation - 0.13 in3.3 mm - -
Hour Temp Dew Point Humidity Winds Wind Gusts Pressure Precip Precip Rate Daily Precip Total
09:40 PM 68.9°F20.5°C 66.2°F19.0°C 91% 1.2 mph NE1.9 kmh NE 6.9 mph11.1 kmh 30.06 in1017.9 mb - 0.00 in0.0 mm 0.13 in3.3 mm
09:38 PM 68.9°F20.5°C 66.2°F19.0°C 91% 3.0 mph NE4.8 kmh NE 7.0 mph11.3 kmh 30.03 in1016.9 mb 0.00 in0.0 mm 0.00 in0.0 mm 0.76 in19.3 mm
09:30 PM 68.8°F20.4°C 66.1°F18.9°C 91% 2.3 mph NE3.7 kmh NE 5.8 mph9.3 kmh 30.06 in1017.9 mb - 0.00 in0.0 mm 0.13 in3.3 mm
09:25 PM 68.7°F20.4°C 66.0°F18.9°C 91% 2.0 mph NE3.2 kmh NE 6.0 mph9.7 kmh 30.03 in1016.9 mb 0.00 in0.0 mm 0.00 in0.0 mm 0.76 in19.3 mm
09:23 PM 68.7°F20.4°C 66.0°F18.9°C 91% 5.0 mph NE8.0 kmh NE 6.0 mph9.7 kmh 30.03 in1016.9 mb 0.00 in0.0 mm 0.00 in0.0 mm 0.76 in19.3 mm
09:20 PM 68.7°F20.4°C 65.6°F18.7°C 90% 3.5 mph NE5.6 kmh NE 9.2 mph14.8 kmh 30.06 in1017.9 mb - 0.00 in0.0 mm 0.13 in3.3 mm
09:10 PM 68.8°F20.4°C 65.7°F18.7°C 90% 3.5 mph NE5.6 kmh NE 8.1 mph13.0 kmh 30.06 in1017.9 mb - 0.00 in0.0 mm 0.13 in3.3 mm
09:09 PM 68.8°F20.4°C 65.8°F18.8°C 90% 3.0 mph NE4.8 kmh NE 8.0 mph12.9 kmh 30.03 in1016.9 mb 0.00 in0.0 mm 0.00 in0.0 mm 0.76 in19.3 mm
09:00 PM 68.9°F20.5°C 65.8°F18.8°C 90% 4.6 mph ENE7.4 kmh ENE 9.2 mph14.8 kmh 30.06 in1017.9 mb - 0.00 in0.0 mm 0.13 in3.3 mm
08:55 PM 69.0°F20.6°C 66.0°F18.9°C 90% 7.0 mph E11.3 kmh E 8.0 mph12.9 kmh 30.03 in1016.9 mb 0.00 in0.0 mm 0.00 in0.0 mm 0.76 in19.3 mm
08:54 PM 68.9°F20.5°C 65.9°F18.8°C 90% 2.0 mph ESE3.2 kmh ESE 8.0 mph12.9 kmh 30.03 in1016.9 mb 0.00 in0.0 mm 0.00 in0.0 mm 0.76 in19.3 mm
08:50 PM 69.0°F20.6°C 65.6°F18.7°C 89% 3.5 mph ESE5.6 kmh ESE 8.1 mph13.0 kmh 30.06 in1017.9 mb - 0.00 in0.0 mm 0.13 in3.3 mm
08:40 PM 69.0°F20.6°C 65.6°F18.7°C 89% 2.3 mph SE3.7 kmh SE 4.6 mph7.4 kmh 30.06 in1017.9 mb - 0.00 in0.0 mm 0.13 in3.3 mm
08:39 PM 69.0°F20.6°C 65.6°F18.7°C 89% 1.0 mph SE1.6 kmh SE 5.0 mph8.0 kmh 30.03 in1016.9 mb 0.00 in0.0 mm 0.00 in0.0 mm 0.76 in19.3 mm
08:30 PM 69.4°F20.8°C 66.0°F18.9°C 89% 1.2 mph SE1.9 kmh SE 3.5 mph5.6 kmh 30.06 in1017.9 mb - 0.00 in0.0 mm 0.13 in3.3 mm
08:25 PM 69.5°F20.8°C 66.1°F18.9°C 89% 3.0 mph SE4.8 kmh SE 3.0 mph4.8 kmh 30.04 in1017.3 mb 0.00 in0.0 mm 0.00 in0.0 mm 0.76 in19.3 mm
08:24 PM 69.5°F20.8°C 66.1°F18.9°C 89% 3.0 mph SE4.8 kmh SE 3.0 mph4.8 kmh 30.03 in1016.9 mb 0.00 in0.0 mm 0.00 in0.0 mm 0.76 in19.3 mm
08:20 PM 69.5°F20.8°C 66.1°F18.9°C 89% 4.6 mph SE7.4 kmh SE 4.6 mph7.4 kmh 30.06 in1017.9 mb - 0.00 in0.0 mm 0.13 in3.3 mm
08:10 PM 70.0°F21.1°C 66.3°F19.1°C 88% 2.3 mph SE3.7 kmh SE 4.6 mph7.4 kmh 30.06 in1017.9 mb - 0.00 in0.0 mm 0.13 in3.3 mm
08:09 PM 70.0°F21.1°C 66.3°F19.1°C 88% 3.0 mph SE4.8 kmh SE 5.0 mph8.0 kmh 30.03 in1016.9 mb 0.00 in0.0 mm 0.00 in0.0 mm 0.76 in19.3 mm
08:00 PM 70.4°F21.3°C 66.4°F19.1°C 87% 2.3 mph SSE3.7 kmh SSE 3.5 mph5.6 kmh 30.06 in1017.9 mb - 0.00 in0.0 mm 0.13 in3.3 mm
07:55 PM 70.6°F21.4°C 66.6°F19.2°C 87% Calm Calm -- 30.03 in1016.9 mb 0.00 in0.0 mm 0.00 in0.0 mm 0.76 in19.3 mm
07:54 PM 70.7°F21.5°C 66.7°F19.3°C 87% Calm Calm -- 30.03 in1016.9 mb 0.00 in0.0 mm 0.00 in0.0 mm 0.76 in19.3 mm
07:50 PM 71.0°F21.7°C 66.9°F19.4°C 87% Calm Calm 1.2 mph1.9 kmh 30.06 in1017.9 mb - 0.00 in0.0 mm 0.13 in3.3 mm
07:40 PM 71.1°F21.7°C 66.7°F19.3°C 86% 1.2 mph SSE1.9 kmh SSE 2.3 mph3.7 kmh 30.06 in1017.9 mb - 0.00 in0.0 mm 0.13 in3.3 mm
07:39 PM 71.0°F21.7°C 66.6°F19.2°C 86% 1.0 mph SSE1.6 kmh SSE 2.0 mph3.2 kmh 30.03 in1016.9 mb 0.00 in0.0 mm 0.00 in0.0 mm 0.76 in19.3 mm
07:30 PM 71.0°F21.7°C 66.6°F19.2°C 86% Calm Calm 4.6 mph7.4 kmh 30.06 in1017.9 mb - 0.00 in0.0 mm 0.13 in3.3 mm
07:25 PM 71.0°F21.7°C 66.6°F19.2°C 86% 2.0 mph SSE3.2 kmh SSE 5.0 mph8.0 kmh 30.03 in1016.9 mb 0.00 in0.0 mm 0.00 in0.0 mm 0.76 in19.3 mm
07:24 PM 71.0°F21.7°C 66.6°F19.2°C 86% 5.0 mph SSE8.0 kmh SSE 5.0 mph8.0 kmh 30.03 in1016.9 mb 0.00 in0.0 mm 0.00 in0.0 mm 0.76 in19.3 mm
07:20 PM 71.0°F21.7°C 66.6°F19.2°C 86% 3.5 mph SSE5.6 kmh SSE 4.6 mph7.4 kmh 30.06 in1017.9 mb - 0.00 in0.0 mm 0.13 in3.3 mm
07:10 PM 71.0°F21.7°C 66.6°F19.2°C 86% 3.5 mph SSE5.6 kmh SSE 6.9 mph11.1 kmh 30.07 in1018.3 mb - 0.00 in0.0 mm 0.13 in3.3 mm
07:09 PM 71.0°F21.7°C 66.6°F19.2°C 86% 2.0 mph SSE3.2 kmh SSE 7.0 mph11.3 kmh 30.04 in1017.3 mb 0.00 in0.0 mm 0.00 in0.0 mm 0.76 in19.3 mm
07:00 PM 71.1°F21.7°C 66.4°F19.1°C 85% Calm Calm 9.2 mph14.8 kmh 30.07 in1018.3 mb - 0.00 in0.0 mm 0.13 in3.3 mm
06:55 PM 71.0°F21.7°C 66.3°F19.1°C 85% 4.0 mph SSE6.4 kmh SSE 9.0 mph14.5 kmh 30.04 in1017.3 mb 0.00 in0.0 mm 0.00 in0.0 mm 0.76 in19.3 mm
06:54 PM 71.1°F21.7°C 66.4°F19.1°C 85% 7.0 mph S11.3 kmh S 9.0 mph14.5 kmh 30.04 in1017.3 mb 0.00 in0.0 mm 0.00 in0.0 mm 0.76 in19.3 mm
06:50 PM 71.2°F21.8°C 66.1°F18.9°C 84% 6.9 mph SSE11.1 kmh SSE 11.5 mph18.5 kmh 30.07 in1018.3 mb - 0.00 in0.0 mm 0.13 in3.3 mm
06:40 PM 71.2°F21.8°C 65.8°F18.8°C 83% 6.9 mph SSE11.1 kmh SSE 11.5 mph18.5 kmh 30.07 in1018.3 mb - 0.00 in0.0 mm 0.13 in3.3 mm
06:39 PM 71.2°F21.8°C 65.8°F18.8°C 83% 7.0 mph SSE11.3 kmh SSE 11.0 mph17.7 kmh 30.04 in1017.3 mb 0.01 in0.3 mm 0.07 in1.8 mm 0.76 in19.3 mm
06:30 PM 71.2°F21.8°C 66.2°F19.0°C 84% 4.6 mph S7.4 kmh S 10.4 mph16.7 kmh 30.07 in1018.3 mb - 0.00 in0.0 mm 0.13 in3.3 mm
06:25 PM 71.0°F21.7°C 65.6°F18.7°C 83% 8.0 mph S12.9 kmh S 8.0 mph12.9 kmh 30.04 in1017.3 mb 0.01 in0.3 mm 0.00 in0.0 mm 0.75 in19.1 mm
06:24 PM 71.0°F21.7°C 65.9°F18.8°C 84% 2.0 mph S3.2 kmh S 4.0 mph6.4 kmh 30.04 in1017.3 mb 0.01 in0.3 mm 0.15 in3.8 mm 0.75 in19.1 mm
06:20 PM 70.8°F21.6°C 65.4°F18.6°C 83% 3.5 mph S5.6 kmh S 6.9 mph11.1 kmh 30.08 in1018.6 mb - 0.00 in0.0 mm 0.13 in3.3 mm
06:10 PM 71.6°F22.0°C 66.2°F19.0°C 83% 3.5 mph SE5.6 kmh SE 9.2 mph14.8 kmh 30.07 in1018.3 mb - 0.00 in0.0 mm 0.13 in3.3 mm
06:09 PM 71.6°F22.0°C 66.2°F19.0°C 83% 5.0 mph SE8.0 kmh SE 9.0 mph14.5 kmh 30.04 in1017.3 mb 0.01 in0.3 mm 0.07 in1.8 mm 0.74 in18.8 mm
06:00 PM 72.0°F22.2°C 66.2°F19.0°C 82% 4.6 mph S7.4 kmh S 10.4 mph16.7 kmh 30.07 in1018.3 mb - 0.00 in0.0 mm 0.13 in3.3 mm
05:55 PM 72.5°F22.5°C 66.7°F19.3°C 82% 6.0 mph S9.7 kmh S 9.0 mph14.5 kmh 30.04 in1017.3 mb 0.01 in0.3 mm 0.00 in0.0 mm 0.73 in18.5 mm
05:54 PM 72.8°F22.7°C 66.6°F19.2°C 81% 1.0 mph S1.6 kmh S 6.0 mph9.7 kmh 30.04 in1017.3 mb 0.01 in0.3 mm 0.15 in3.8 mm 0.73 in18.5 mm
05:50 PM 73.6°F23.1°C 67.4°F19.7°C 81% 5.8 mph S9.3 kmh S 10.4 mph16.7 kmh 30.06 in1017.9 mb - 0.01 in0.3 mm 0.13 in3.3 mm
05:40 PM 74.2°F23.4°C 67.7°F19.8°C 80% 5.8 mph SSE9.3 kmh SSE 11.5 mph18.5 kmh 30.06 in1017.9 mb - 0.00 in0.0 mm 0.12 in3.0 mm
05:39 PM 74.2°F23.4°C 67.6°F19.8°C 80% 5.0 mph SSE8.0 kmh SSE 12.0 mph19.3 kmh 30.03 in1016.9 mb 0.00 in0.0 mm 0.00 in0.0 mm 0.71 in18.0 mm
05:30 PM 75.3°F24.1°C 69.4°F20.8°C 82% 4.6 mph SE7.4 kmh SE 8.1 mph13.0 kmh 30.06 in1017.9 mb - 0.00 in0.0 mm 0.12 in3.0 mm
05:25 PM 75.2°F24.0°C 69.7°F20.9°C 83% 5.0 mph SE8.0 kmh SE 8.0 mph12.9 kmh 30.03 in1016.9 mb 0.00 in0.0 mm 0.00 in0.0 mm 0.71 in18.0 mm
05:24 PM 75.2°F24.0°C 69.7°F20.9°C 83% 5.0 mph ESE8.0 kmh ESE 8.0 mph12.9 kmh 30.03 in1016.9 mb 0.00 in0.0 mm 0.00 in0.0 mm 0.71 in18.0 mm
05:20 PM 74.6°F23.7°C 68.8°F20.4°C 82% 4.6 mph ENE7.4 kmh ENE 9.2 mph14.8 kmh 30.06 in1017.9 mb - 0.00 in0.0 mm 0.12 in3.0 mm
05:10 PM 73.7°F23.2°C 68.2°F20.1°C 83% 9.2 mph E14.8 kmh E 11.5 mph18.5 kmh 30.05 in1017.6 mb - 0.00 in0.0 mm 0.12 in3.0 mm
05:09 PM 73.7°F23.2°C 68.2°F20.1°C 83% 6.0 mph E9.7 kmh E 11.0 mph17.7 kmh 30.03 in1016.9 mb 0.01 in0.3 mm 0.07 in1.8 mm 0.71 in18.0 mm
05:00 PM 73.5°F23.1°C 68.7°F20.4°C 85% Calm Calm 3.5 mph5.6 kmh 30.04 in1017.3 mb - 0.00 in0.0 mm 0.12 in3.0 mm
04:55 PM 73.6°F23.1°C 69.2°F20.7°C 86% 2.0 mph NE3.2 kmh NE 3.0 mph4.8 kmh 30.01 in1016.3 mb 0.01 in0.3 mm 0.00 in0.0 mm 0.70 in17.8 mm
04:54 PM 73.5°F23.1°C 69.1°F20.6°C 86% 2.0 mph NE3.2 kmh NE 3.0 mph4.8 kmh 30.01 in1016.3 mb 0.01 in0.3 mm 0.15 in3.8 mm 0.70 in17.8 mm
04:50 PM 73.4°F23.0°C 69.0°F20.6°C 86% 1.2 mph NE1.9 kmh NE 2.3 mph3.7 kmh 30.04 in1017.3 mb - 0.00 in0.0 mm 0.12 in3.0 mm
04:40 PM 73.4°F23.0°C 69.0°F20.6°C 86% Calm Calm -- 30.04 in1017.3 mb - 0.00 in0.0 mm 0.12 in3.0 mm
04:39 PM 73.5°F23.1°C 69.1°F20.6°C 86% Calm Calm -- 30.01 in1016.3 mb 0.02 in0.5 mm 0.13 in3.3 mm 0.69 in17.5 mm
04:30 PM 72.9°F22.7°C 68.5°F20.3°C 86% Calm Calm 3.5 mph5.6 kmh 30.04 in1017.3 mb - 0.00 in0.0 mm 0.12 in3.0 mm
04:25 PM 73.1°F22.8°C 68.7°F20.4°C 86% 2.0 mph NE3.2 kmh NE 2.0 mph3.2 kmh 30.01 in1016.3 mb 0.02 in0.5 mm 0.00 in0.0 mm 0.67 in17.0 mm
04:24 PM 73.2°F22.9°C 68.8°F20.4°C 86% 1.0 mph NE1.6 kmh NE 2.0 mph3.2 kmh 30.00 in1015.9 mb 0.02 in0.5 mm 0.30 in7.6 mm 0.67 in17.0 mm
04:20 PM 73.2°F22.9°C 68.8°F20.4°C 86% Calm Calm 3.5 mph5.6 kmh 30.03 in1016.9 mb - 0.01 in0.3 mm 0.12 in3.0 mm
04:10 PM 72.7°F22.6°C 68.2°F20.1°C 86% 1.2 mph NE1.9 kmh NE 3.5 mph5.6 kmh 30.03 in1016.9 mb - 0.01 in0.3 mm 0.12 in3.0 mm
04:09 PM 72.7°F22.6°C 68.3°F20.2°C 86% 2.0 mph NE3.2 kmh NE 4.0 mph6.4 kmh 30.00 in1015.9 mb 0.11 in2.8 mm 0.73 in18.5 mm 0.63 in16.0 mm
04:00 PM 72.5°F22.5°C 68.1°F20.1°C 86% 3.5 mph NE5.6 kmh NE 4.6 mph7.4 kmh 30.03 in1016.9 mb - 0.00 in0.0 mm 0.11 in2.8 mm
03:55 PM 72.6°F22.6°C 67.8°F19.9°C 85% 5.0 mph NE8.0 kmh NE 5.0 mph8.0 kmh 30.00 in1015.9 mb 0.11 in2.8 mm 0.00 in0.0 mm 0.52 in13.2 mm
03:54 PM 72.8°F22.7°C 68.0°F20.0°C 85% 4.0 mph NE6.4 kmh NE 4.0 mph6.4 kmh 30.00 in1015.9 mb 0.11 in2.8 mm 1.65 in41.9 mm 0.52 in13.2 mm
03:50 PM 73.0°F22.8°C 67.5°F19.7°C 83% 3.5 mph NE5.6 kmh NE 3.5 mph5.6 kmh 30.03 in1016.9 mb - 0.00 in0.0 mm 0.11 in2.8 mm
03:40 PM 73.4°F23.0°C 67.6°F19.8°C 82% Calm Calm 4.6 mph7.4 kmh 30.03 in1016.9 mb - 0.01 in0.3 mm 0.11 in2.8 mm
03:39 PM 73.4°F23.0°C 67.6°F19.8°C 82% 1.0 mph NE1.6 kmh NE 5.0 mph8.0 kmh 30.00 in1015.9 mb 0.11 in2.8 mm 0.73 in18.5 mm 0.40 in10.2 mm
03:30 PM 73.4°F23.0°C 66.9°F19.4°C 80% 3.5 mph NE5.6 kmh NE 6.9 mph11.1 kmh 30.03 in1016.9 mb - 0.00 in0.0 mm 0.10 in2.5 mm
03:25 PM 73.4°F23.0°C 66.9°F19.4°C 80% 5.0 mph NE8.0 kmh NE 6.0 mph9.7 kmh 30.00 in1015.9 mb 0.10 in2.5 mm 0.00 in0.0 mm 0.29 in7.4 mm
03:24 PM 73.2°F22.9°C 66.7°F19.3°C 80% 5.0 mph NNE8.0 kmh NNE 6.0 mph9.7 kmh 29.99 in1015.6 mb 0.10 in2.5 mm 1.50 in38.1 mm 0.29 in7.4 mm
03:20 PM 73.0°F22.8°C 66.5°F19.2°C 80% 6.9 mph NNE11.1 kmh NNE 8.1 mph13.0 kmh 30.02 in1016.6 mb - 0.01 in0.3 mm 0.10 in2.5 mm
03:10 PM 72.9°F22.7°C 65.6°F18.7°C 78% 4.6 mph NE7.4 kmh NE 11.5 mph18.5 kmh 30.02 in1016.6 mb - 0.09 in2.3 mm 0.09 in2.3 mm
03:09 PM 72.9°F22.7°C 65.7°F18.7°C 78% 7.0 mph NE11.3 kmh NE 12.0 mph19.3 kmh 30.00 in1015.9 mb 0.09 in2.3 mm 0.60 in15.2 mm 0.09 in2.3 mm
03:00 PM 76.0°F24.4°C 65.5°F18.6°C 70% 11.5 mph NE18.5 kmh NE 21.9 mph35.2 kmh 30.03 in1016.9 mb - 0.00 in0.0 mm 0.00 in0.0 mm
02:55 PM 78.9°F26.1°C 65.7°F18.7°C 64% 14.0 mph N22.5 kmh N 22.0 mph35.4 kmh 30.01 in1016.3 mb 0.00 in0.0 mm 0.00 in0.0 mm 0.00 in0.0 mm
02:54 PM 79.5°F26.4°C 65.4°F18.6°C 62% 7.0 mph NNE11.3 kmh NNE 14.0 mph22.5 kmh 30.01 in1016.3 mb 0.00 in0.0 mm 0.00 in0.0 mm 0.00 in0.0 mm
02:50 PM 80.5°F26.9°C 66.3°F19.1°C 62% 4.6 mph N7.4 kmh N 8.1 mph13.0 kmh 30.03 in1016.9 mb - 0.00 in0.0 mm 0.00 in0.0 mm
02:40 PM 81.3°F27.4°C 66.1°F18.9°C 60% 6.9 mph WNW11.1 kmh WNW 10.4 mph16.7 kmh 30.02 in1016.6 mb - 0.00 in0.0 mm 0.00 in0.0 mm
02:39 PM 81.3°F27.4°C 66.1°F18.9°C 60% 7.0 mph WNW11.3 kmh WNW 10.0 mph16.1 kmh 29.99 in1015.6 mb 0.00 in0.0 mm 0.00 in0.0 mm 0.00 in0.0 mm
02:30 PM 82.7°F28.2°C 65.9°F18.8°C 57% 11.5 mph SW18.5 kmh SW 11.5 mph18.5 kmh 30.01 in1016.3 mb - 0.00 in0.0 mm 0.00 in0.0 mm
02:25 PM 82.6°F28.1°C 64.3°F17.9°C 54% 6.0 mph WSW9.7 kmh WSW 10.0 mph16.1 kmh 29.97 in1014.9 mb 0.00 in0.0 mm 0.00 in0.0 mm 0.00 in0.0 mm
02:24 PM 82.5°F28.1°C 64.7°F18.2°C 55% 6.0 mph WSW9.7 kmh WSW 9.0 mph14.5 kmh 29.97 in1014.9 mb 0.00 in0.0 mm 0.00 in0.0 mm 0.00 in0.0 mm
02:20 PM 82.4°F28.0°C 66.6°F19.2°C 59% 9.2 mph WSW14.8 kmh WSW 12.7 mph20.4 kmh 30.00 in1015.9 mb - 0.00 in0.0 mm 0.00 in0.0 mm
02:10 PM 82.1°F27.8°C 65.4°F18.6°C 57% 10.4 mph WSW16.7 kmh WSW 11.5 mph18.5 kmh 30.01 in1016.3 mb - 0.00 in0.0 mm 0.00 in0.0 mm
02:09 PM 82.1°F27.8°C 65.4°F18.6°C 57% 10.0 mph WSW16.1 kmh WSW 12.0 mph19.3 kmh 29.98 in1015.2 mb 0.00 in0.0 mm 0.00 in0.0 mm 0.00 in0.0 mm
02:00 PM 82.0°F27.8°C 65.7°F18.7°C 58% 10.4 mph WSW16.7 kmh WSW 11.5 mph18.5 kmh 30.01 in1016.3 mb - 0.00 in0.0 mm 0.00 in0.0 mm
01:55 PM 81.9°F27.7°C 65.7°F18.7°C 58% 7.0 mph WSW11.3 kmh WSW 11.0 mph17.7 kmh 29.98 in1015.2 mb 0.00 in0.0 mm 0.00 in0.0 mm 0.00 in0.0 mm
01:54 PM 81.9°F27.7°C 65.7°F18.7°C 58% 9.0 mph WSW14.5 kmh WSW 11.0 mph17.7 kmh 29.98 in1015.2 mb 0.00 in0.0 mm 0.00 in0.0 mm 0.00 in0.0 mm
01:50 PM 82.1°F27.8°C 65.9°F18.8°C 58% 8.1 mph WSW13.0 kmh WSW 10.4 mph16.7 kmh 30.01 in1016.3 mb - 0.00 in0.0 mm 0.00 in0.0 mm
01:40 PM 82.0°F27.8°C 66.3°F19.1°C 59% 9.2 mph WSW14.8 kmh WSW 10.4 mph16.7 kmh 30.01 in1016.3 mb - 0.00 in0.0 mm 0.00 in0.0 mm
01:39 PM 82.0°F27.8°C 66.8°F19.3°C 60% 9.0 mph WSW14.5 kmh WSW 10.0 mph16.1 kmh 29.98 in1015.2 mb 0.00 in0.0 mm 0.00 in0.0 mm 0.00 in0.0 mm
01:30 PM 81.8°F27.7°C 65.1°F18.4°C 57% 10.4 mph WSW16.7 kmh WSW 11.5 mph18.5 kmh 30.01 in1016.3 mb - 0.00 in0.0 mm 0.00 in0.0 mm
01:25 PM 82.5°F28.1°C 66.7°F19.3°C 59% 5.0 mph WSW8.0 kmh WSW 9.0 mph14.5 kmh 29.98 in1015.2 mb 0.00 in0.0 mm 0.00 in0.0 mm 0.00 in0.0 mm
01:24 PM 82.5°F28.1°C 66.7°F19.3°C 59% 6.0 mph WSW9.7 kmh WSW 7.0 mph11.3 kmh 29.98 in1015.2 mb 0.00 in0.0 mm 0.00 in0.0 mm 0.00 in0.0 mm
01:20 PM 82.2°F27.9°C 65.4°F18.6°C 57% 8.1 mph WSW13.0 kmh WSW 11.5 mph18.5 kmh 30.01 in1016.3 mb - 0.00 in0.0 mm 0.00 in0.0 mm
01:10 PM 82.3°F27.9°C 64.5°F18.1°C 55% 5.8 mph WSW9.3 kmh WSW 10.4 mph16.7 kmh 30.02 in1016.6 mb - 0.00 in0.0 mm 0.00 in0.0 mm
01:09 PM 82.3°F27.9°C 64.5°F18.1°C 55% 5.0 mph WSW8.0 kmh WSW 10.0 mph16.1 kmh 29.99 in1015.6 mb 0.00 in0.0 mm 0.00 in0.0 mm 0.00 in0.0 mm
01:00 PM 81.6°F27.6°C 64.9°F18.3°C 57% 4.6 mph WSW7.4 kmh WSW 9.2 mph14.8 kmh 30.02 in1016.6 mb - 0.00 in0.0 mm 0.00 in0.0 mm
12:55 PM 81.6°F27.6°C 64.4°F18.0°C 56% 9.0 mph WSW14.5 kmh WSW 9.0 mph14.5 kmh 29.99 in1015.6 mb 0.00 in0.0 mm 0.00 in0.0 mm 0.00 in0.0 mm
12:54 PM 81.9°F27.7°C 64.2°F17.9°C 55% 8.0 mph WSW12.9 kmh WSW 9.0 mph14.5 kmh 29.99 in1015.6 mb 0.00 in0.0 mm 0.00 in0.0 mm 0.00 in0.0 mm
12:50 PM 81.9°F27.7°C 64.1°F17.8°C 55% 6.9 mph WSW11.1 kmh WSW 10.4 mph16.7 kmh 30.02 in1016.6 mb - 0.00 in0.0 mm 0.00 in0.0 mm
12:40 PM 81.6°F27.6°C 63.9°F17.7°C 55% 5.8 mph SW9.3 kmh SW 9.2 mph14.8 kmh 30.03 in1016.9 mb - 0.00 in0.0 mm 0.00 in0.0 mm
12:39 PM 81.6°F27.6°C 63.9°F17.7°C 55% 9.0 mph SW14.5 kmh SW 9.0 mph14.5 kmh 30.00 in1015.9 mb 0.00 in0.0 mm 0.00 in0.0 mm 0.00 in0.0 mm
12:30 PM 81.8°F27.7°C 63.5°F17.5°C 54% 3.5 mph SW5.6 kmh SW 9.2 mph14.8 kmh 30.04 in1017.3 mb - 0.00 in0.0 mm 0.00 in0.0 mm
12:25 PM 81.4°F27.4°C 64.2°F17.9°C 56% 7.0 mph SW11.3 kmh SW 9.0 mph14.5 kmh 30.01 in1016.3 mb 0.00 in0.0 mm 0.00 in0.0 mm 0.00 in0.0 mm
12:24 PM 81.1°F27.3°C 63.9°F17.7°C 56% 8.0 mph SW12.9 kmh SW 9.0 mph14.5 kmh 30.00 in1015.9 mb 0.00 in0.0 mm 0.00 in0.0 mm 0.00 in0.0 mm
12:20 PM 80.9°F27.2°C 63.7°F17.6°C 56% 5.8 mph SW9.3 kmh SW 9.2 mph14.8 kmh 30.04 in1017.3 mb - 0.00 in0.0 mm 0.00 in0.0 mm
12:10 PM 81.5°F27.5°C 64.8°F18.2°C 57% 5.8 mph SW9.3 kmh SW 8.1 mph13.0 kmh 30.04 in1017.3 mb - 0.00 in0.0 mm 0.00 in0.0 mm
12:09 PM 81.5°F27.5°C 64.8°F18.2°C 57% 6.0 mph SW9.7 kmh SW 8.0 mph12.9 kmh 30.01 in1016.3 mb 0.00 in0.0 mm 0.00 in0.0 mm 0.00 in0.0 mm
12:00 PM 80.2°F26.8°C 63.6°F17.6°C 57% 4.6 mph SW7.4 kmh SW 9.2 mph14.8 kmh 30.04 in1017.3 mb - 0.00 in0.0 mm 0.00 in0.0 mm
11:55 AM 80.3°F26.8°C 63.7°F17.6°C 57% 8.0 mph SW12.9 kmh SW 8.0 mph12.9 kmh 30.01 in1016.3 mb 0.00 in0.0 mm 0.00 in0.0 mm 0.00 in0.0 mm
11:54 AM 80.6°F27.0°C 64.0°F17.8°C 57% 7.0 mph SW11.3 kmh SW 7.0 mph11.3 kmh 30.01 in1016.3 mb 0.00 in0.0 mm 0.00 in0.0 mm 0.00 in0.0 mm
11:50 AM 80.7°F27.1°C 65.1°F18.4°C 59% 4.6 mph SW7.4 kmh SW 6.9 mph11.1 kmh 30.04 in1017.3 mb - 0.00 in0.0 mm 0.00 in0.0 mm
11:40 AM 79.1°F26.2°C 64.5°F18.1°C 61% 6.9 mph SW11.1 kmh SW 9.2 mph14.8 kmh 30.05 in1017.6 mb - 0.00 in0.0 mm 0.00 in0.0 mm
11:39 AM 79.1°F26.2°C 64.5°F18.1°C 61% 7.0 mph SW11.3 kmh SW 9.0 mph14.5 kmh 30.02 in1016.6 mb 0.00 in0.0 mm 0.00 in0.0 mm 0.00 in0.0 mm
11:30 AM 79.2°F26.2°C 63.6°F17.6°C 59% 5.8 mph SW9.3 kmh SW 9.2 mph14.8 kmh 30.05 in1017.6 mb - 0.00 in0.0 mm 0.00 in0.0 mm
11:25 AM 79.5°F26.4°C 63.4°F17.4°C 58% 6.0 mph SW9.7 kmh SW 8.0 mph12.9 kmh 30.02 in1016.6 mb 0.00 in0.0 mm 0.00 in0.0 mm 0.00 in0.0 mm
11:24 AM 79.4°F26.3°C 63.4°F17.4°C 58% 6.0 mph SW9.7 kmh SW 8.0 mph12.9 kmh 30.02 in1016.6 mb 0.00 in0.0 mm 0.00 in0.0 mm 0.00 in0.0 mm
11:20 AM 79.7°F26.5°C 64.6°F18.1°C 60% 8.1 mph SW13.0 kmh SW 8.1 mph13.0 kmh 30.05 in1017.6 mb - 0.00 in0.0 mm 0.00 in0.0 mm
11:10 AM 80.7°F27.1°C 64.0°F17.8°C 57% 4.6 mph SSW7.4 kmh SSW 8.1 mph13.0 kmh 30.05 in1017.6 mb - 0.00 in0.0 mm 0.00 in0.0 mm
11:09 AM 80.6°F27.0°C 63.5°F17.5°C 56% 3.0 mph SSW4.8 kmh SSW 8.0 mph12.9 kmh 30.02 in1016.6 mb 0.00 in0.0 mm 0.00 in0.0 mm 0.00 in0.0 mm
11:00 AM 80.4°F26.9°C 62.8°F17.1°C 55% 3.5 mph SSW5.6 kmh SSW 8.1 mph13.0 kmh 30.05 in1017.6 mb - 0.00 in0.0 mm 0.00 in0.0 mm
10:55 AM 80.4°F26.9°C 63.3°F17.4°C 56% 4.0 mph SSW6.4 kmh SSW 8.0 mph12.9 kmh 30.02 in1016.6 mb 0.00 in0.0 mm 0.00 in0.0 mm 0.00 in0.0 mm
10:54 AM 80.6°F27.0°C 63.0°F17.2°C 55% 4.0 mph SSW6.4 kmh SSW 8.0 mph12.9 kmh 30.02 in1016.6 mb 0.00 in0.0 mm 0.00 in0.0 mm 0.00 in0.0 mm
10:50 AM 80.7°F27.1°C 63.0°F17.2°C 55% Calm Calm 5.8 mph9.3 kmh 30.05 in1017.6 mb - 0.00 in0.0 mm 0.00 in0.0 mm
10:40 AM 80.1°F26.7°C 63.0°F17.2°C 56% 2.3 mph SSW3.7 kmh SSW 5.8 mph9.3 kmh 30.05 in1017.6 mb - 0.00 in0.0 mm 0.00 in0.0 mm
10:39 AM 80.1°F26.7°C 63.0°F17.2°C 56% 4.0 mph SSW6.4 kmh SSW 6.0 mph9.7 kmh 30.02 in1016.6 mb 0.00 in0.0 mm 0.00 in0.0 mm 0.00 in0.0 mm
10:30 AM 80.3°F26.8°C 62.6°F17.0°C 55% 3.5 mph SSW5.6 kmh SSW 4.6 mph7.4 kmh 30.05 in1017.6 mb - 0.00 in0.0 mm 0.00 in0.0 mm
10:25 AM 79.9°F26.6°C 62.8°F17.1°C 56% 2.0 mph SSW3.2 kmh SSW 5.0 mph8.0 kmh 30.02 in1016.6 mb 0.00 in0.0 mm 0.00 in0.0 mm 0.00 in0.0 mm
10:24 AM 79.7°F26.5°C 62.1°F16.7°C 55% 3.0 mph SSW4.8 kmh SSW 5.0 mph8.0 kmh 30.02 in1016.6 mb 0.00 in0.0 mm 0.00 in0.0 mm 0.00 in0.0 mm
10:20 AM 79.2°F26.2°C 61.6°F16.4°C 55% 2.3 mph SSW3.7 kmh SSW 5.8 mph9.3 kmh 30.05 in1017.6 mb - 0.00 in0.0 mm 0.00 in0.0 mm
10:10 AM 79.0°F26.1°C 61.5°F16.4°C 55% 5.8 mph SSW9.3 kmh SSW 6.9 mph11.1 kmh 30.05 in1017.6 mb - 0.00 in0.0 mm 0.00 in0.0 mm
10:09 AM 79.0°F26.1°C 61.5°F16.4°C 55% 5.0 mph SSW8.0 kmh SSW 7.0 mph11.3 kmh 30.02 in1016.6 mb 0.00 in0.0 mm 0.00 in0.0 mm 0.00 in0.0 mm
10:00 AM 79.0°F26.1°C 61.4°F16.3°C 55% 4.6 mph SSW7.4 kmh SSW 6.9 mph11.1 kmh 30.05 in1017.6 mb - 0.00 in0.0 mm 0.00 in0.0 mm
09:55 AM 79.0°F26.1°C 61.0°F16.1°C 54% 4.0 mph SSW6.4 kmh SSW 6.0 mph9.7 kmh 30.02 in1016.6 mb 0.00 in0.0 mm 0.00 in0.0 mm 0.00 in0.0 mm
09:54 AM 79.1°F26.2°C 61.1°F16.2°C 54% 5.0 mph SSW8.0 kmh SSW 5.0 mph8.0 kmh 30.02 in1016.6 mb 0.00 in0.0 mm 0.00 in0.0 mm 0.00 in0.0 mm
09:50 AM 79.3°F26.3°C 61.8°F16.6°C 55% 5.8 mph SSW9.3 kmh SSW 8.1 mph13.0 kmh 30.05 in1017.6 mb - 0.00 in0.0 mm 0.00 in0.0 mm
09:40 AM 78.7°F25.9°C 61.7°F16.5°C 56% 5.8 mph S9.3 kmh S 8.1 mph13.0 kmh 30.05 in1017.6 mb - 0.00 in0.0 mm 0.00 in0.0 mm
09:39 AM 78.7°F25.9°C 61.7°F16.5°C 56% 6.0 mph S9.7 kmh S 8.0 mph12.9 kmh 30.02 in1016.6 mb 0.00 in0.0 mm 0.00 in0.0 mm 0.00 in0.0 mm
09:30 AM 78.8°F26.0°C 61.8°F16.6°C 56% 4.6 mph S7.4 kmh S 6.9 mph11.1 kmh 30.04 in1017.3 mb - 0.00 in0.0 mm 0.00 in0.0 mm
09:25 AM 78.8°F26.0°C 62.3°F16.8°C 57% 4.0 mph S6.4 kmh S 7.0 mph11.3 kmh 30.01 in1016.3 mb 0.00 in0.0 mm 0.00 in0.0 mm 0.00 in0.0 mm
09:24 AM 78.8°F26.0°C 61.8°F16.6°C 56% 4.0 mph S6.4 kmh S 7.0 mph11.3 kmh 30.02 in1016.6 mb 0.00 in0.0 mm 0.00 in0.0 mm 0.00 in0.0 mm
09:20 AM 78.8°F26.0°C 62.3°F16.8°C 57% 1.2 mph S1.9 kmh S 6.9 mph11.1 kmh 30.04 in1017.3 mb - 0.00 in0.0 mm 0.00 in0.0 mm
09:10 AM 78.8°F26.0°C 61.8°F16.6°C 56% 5.8 mph SSE9.3 kmh SSE 6.9 mph11.1 kmh 30.04 in1017.3 mb - 0.00 in0.0 mm 0.00 in0.0 mm
09:09 AM 78.8°F26.0°C 61.8°F16.6°C 56% 5.0 mph SSE8.0 kmh SSE 7.0 mph11.3 kmh 30.02 in1016.6 mb 0.00 in0.0 mm 0.00 in0.0 mm 0.00 in0.0 mm
09:00 AM 79.5°F26.4°C 62.4°F16.9°C 56% 4.6 mph SSE7.4 kmh SSE 5.8 mph9.3 kmh 30.05 in1017.6 mb - 0.00 in0.0 mm 0.00 in0.0 mm
08:55 AM 79.6°F26.4°C 62.5°F16.9°C 56% 5.0 mph SE8.0 kmh SE 5.0 mph8.0 kmh 30.02 in1016.6 mb 0.00 in0.0 mm 0.00 in0.0 mm 0.00 in0.0 mm
08:54 AM 79.7°F26.5°C 62.6°F17.0°C 56% 4.0 mph SE6.4 kmh SE 5.0 mph8.0 kmh 30.02 in1016.6 mb 0.00 in0.0 mm 0.00 in0.0 mm 0.00 in0.0 mm
08:50 AM 79.5°F26.4°C 63.0°F17.2°C 57% 2.3 mph SE3.7 kmh SE 4.6 mph7.4 kmh 30.05 in1017.6 mb - 0.00 in0.0 mm 0.00 in0.0 mm
08:40 AM 78.6°F25.9°C 62.6°F17.0°C 58% Calm Calm 4.6 mph7.4 kmh 30.05 in1017.6 mb - 0.00 in0.0 mm 0.00 in0.0 mm
08:39 AM 78.6°F25.9°C 63.1°F17.3°C 59% Calm Calm 5.0 mph8.0 kmh 30.02 in1016.6 mb 0.00 in0.0 mm 0.00 in0.0 mm 0.00 in0.0 mm
08:30 AM 79.0°F26.1°C 62.5°F16.9°C 57% 2.3 mph ESE3.7 kmh ESE 4.6 mph7.4 kmh 30.05 in1017.6 mb - 0.00 in0.0 mm 0.00 in0.0 mm
08:25 AM 79.0°F26.1°C 62.5°F16.9°C 57% 2.0 mph ESE3.2 kmh ESE 5.0 mph8.0 kmh 30.02 in1016.6 mb 0.00 in0.0 mm 0.00 in0.0 mm 0.00 in0.0 mm
08:24 AM 79.1°F26.2°C 62.6°F17.0°C 57% 3.0 mph ESE4.8 kmh ESE 5.0 mph8.0 kmh 30.02 in1016.6 mb 0.00 in0.0 mm 0.00 in0.0 mm 0.00 in0.0 mm
08:20 AM 79.7°F26.5°C 62.6°F17.0°C 56% 2.3 mph E3.7 kmh E 4.6 mph7.4 kmh 30.05 in1017.6 mb - 0.00 in0.0 mm 0.00 in0.0 mm
08:10 AM 80.4°F26.9°C 61.2°F16.2°C 52% 1.2 mph E1.9 kmh E 4.6 mph7.4 kmh 30.05 in1017.6 mb - 0.00 in0.0 mm 0.00 in0.0 mm
08:09 AM 80.4°F26.9°C 61.2°F16.2°C 52% 1.0 mph E1.6 kmh E 5.0 mph8.0 kmh 30.02 in1016.6 mb 0.00 in0.0 mm 0.00 in0.0 mm 0.00 in0.0 mm
08:00 AM 79.4°F26.3°C 62.4°F16.9°C 56% Calm Calm 3.5 mph5.6 kmh 30.05 in1017.6 mb - 0.00 in0.0 mm 0.00 in0.0 mm
07:55 AM 79.6°F26.4°C 63.0°F17.2°C 57% Calm Calm 2.0 mph3.2 kmh 30.02 in1016.6 mb 0.00 in0.0 mm 0.00 in0.0 mm 0.00 in0.0 mm
07:54 AM 79.6°F26.4°C 63.0°F17.2°C 57% Calm Calm 2.0 mph3.2 kmh 30.01 in1016.3 mb 0.00 in0.0 mm 0.00 in0.0 mm 0.00 in0.0 mm
07:50 AM 79.2°F26.2°C 61.6°F16.4°C 55% Calm Calm 2.3 mph3.7 kmh 30.04 in1017.3 mb - 0.00 in0.0 mm 0.00 in0.0 mm
07:40 AM 78.4°F25.8°C 62.4°F16.9°C 58% Calm Calm 1.2 mph1.9 kmh 30.05 in1017.6 mb - 0.00 in0.0 mm 0.00 in0.0 mm
07:39 AM 78.4°F25.8°C 62.4°F16.9°C 58% Calm Calm 1.0 mph1.6 kmh 30.02 in1016.6 mb 0.00 in0.0 mm 0.00 in0.0 mm 0.00 in0.0 mm
07:30 AM 78.1°F25.6°C 61.1°F16.2°C 56% 2.3 mph E3.7 kmh E 4.6 mph7.4 kmh 30.04 in1017.3 mb - 0.00 in0.0 mm 0.00 in0.0 mm
07:25 AM 78.1°F25.6°C 61.6°F16.4°C 57% 2.0 mph E3.2 kmh E 3.0 mph4.8 kmh 30.01 in1016.3 mb 0.00 in0.0 mm 0.00 in0.0 mm 0.00 in0.0 mm
07:24 AM 78.0°F25.6°C 61.6°F16.4°C 57% Calm Calm 3.0 mph4.8 kmh 30.02 in1016.6 mb 0.00 in0.0 mm 0.00 in0.0 mm 0.00 in0.0 mm
07:22 AM 77.9°F25.5°C 61.5°F16.4°C 57% 3.0 mph E4.8 kmh E 3.0 mph4.8 kmh 30.02 in1016.6 mb 0.00 in0.0 mm 0.00 in0.0 mm 0.00 in0.0 mm
07:20 AM 76.6°F24.8°C 61.2°F16.2°C 59% 6.9 mph ENE11.1 kmh ENE 11.5 mph18.5 kmh 29.95 in1014.2 mb - 0.00 in0.0 mm 0.00 in0.0 mm